Time;durP1;ratioP1;P1;durP2;ratioP2;P2;SDS_P1;SDS_P2;PMS_P1;PMS_P2;Temp;Humidity;BMP_temperature;BMP_pressure;BME280_temperature;BME280_humidity;BME280_pressure;Samples;Min_cycle;Max_cycle;Signal;HPM_P1;HPM_P2
2022/07/25 17:14:49;;;;;;;7.28;1.40;;;;;;;23.00;44.49;100976.56;5110414;27;20728;-46
2022/07/25 17:17:15;;;;;;;5.07;1.45;;;;;;;22.89;44.52;100989.03;5110298;28;20479;-45
2022/07/25 17:19:40;;;;;;;9.05;1.50;;;;;;;22.79;43.85;100988.34;5109641;28;20028;-43
2022/07/25 17:22:07;;;;;;;7.47;1.17;;;;;;;22.67;43.89;101001.72;5109504;28;20059;-44
2022/07/25 17:24:32;;;;;;;7.70;1.33;;;;;;;22.66;44.19;100992.97;5109282;28;20035;-49
2022/07/25 17:41:21;;;;;;;7.07;1.17;;;;;;;22.38;45.14;101007.50;5109839;27;20388;-44
2022/07/25 17:43:47;;;;;;;9.15;1.45;;;;;;;22.32;45.45;101014.56;5110090;28;20390;-46
2022/07/25 17:46:12;;;;;;;6.60;1.20;;;;;;;22.23;45.80;101001.56;5109285;28;20028;-45
2022/07/25 17:48:39;;;;;;;4.38;1.00;;;;;;;22.20;45.79;101004.25;5109930;28;20024;-45
2022/07/25 17:51:05;;;;;;;6.65;2.10;;;;;;;22.15;46.19;101003.47;5109954;28;20040;-44
2022/07/25 17:53:31;;;;;;;7.95;1.20;;;;;;;22.14;46.22;101009.59;5109287;28;20022;-46
2022/07/25 17:55:56;;;;;;;9.18;1.35;;;;;;;22.14;46.24;101010.47;5109536;28;20040;-49
2022/07/25 17:58:22;;;;;;;11.85;1.52;;;;;;;22.07;46.22;101013.22;5109942;28;20031;-46
2022/07/25 18:00:47;;;;;;;6.63;1.48;;;;;;;22.00;46.46;101015.94;5109074;28;20043;-44
2022/07/25 18:03:12;;;;;;;5.47;1.10;;;;;;;21.96;46.57;101011.63;5109523;28;20073;-47
2022/07/25 18:05:38;;;;;;;5.90;1.10;;;;;;;21.89;46.88;101009.97;5109650;28;20028;-47
2022/07/25 18:08:04;;;;;;;3.83;1.42;;;;;;;21.84;47.22;101022.28;5108966;28;20016;-46
2022/07/25 18:10:29;;;;;;;8.98;1.33;;;;;;;21.78;47.16;101022.38;5109153;28;20020;-46
2022/07/25 18:12:54;;;;;;;6.47;1.00;;;;;;;21.72;47.59;101023.34;5109345;28;20505;-45
2022/07/25 18:15:20;;;;;;;6.82;1.25;;;;;;;21.64;47.91;101023.44;5109606;28;20378;-47
2022/07/25 18:17:47;;;;;;;5.18;1.00;;;;;;;21.59;47.80;101033.13;5109123;28;20489;-47
2022/07/25 18:20:14;;;;;;;6.07;1.33;;;;;;;21.56;48.11;101037.53;5108808;28;20049;-44
2022/07/25 18:22:40;;;;;;;4.38;1.08;;;;;;;21.49;49.28;101049.84;5109445;28;20262;-47
2022/07/25 18:25:07;;;;;;;6.80;1.30;;;;;;;21.37;50.94;101043.84;5108744;28;20050;-45
2022/07/25 18:27:33;;;;;;;11.88;1.73;;;;;;;21.34;52.26;101043.91;5108939;28;20020;-45
2022/07/25 18:29:59;;;;;;;11.95;1.73;;;;;;;21.31;53.17;101043.91;5108988;28;20027;-45
2022/07/25 18:32:24;;;;;;;11.15;1.92;;;;;;;21.34;53.72;101050.88;5109184;28;20028;-47
2022/07/25 18:34:50;;;;;;;8.40;1.80;;;;;;;21.21;54.45;101050.16;5108519;28;20119;-46
2022/07/25 18:37:15;;;;;;;11.05;2.00;;;;;;;21.13;54.71;101049.38;5108768;28;20024;-48
2022/07/25 18:39:41;;;;;;;12.35;2.03;;;;;;;21.11;55.17;101051.13;5108605;28;20056;-45
2022/07/25 18:42:06;;;;;;;13.20;2.10;;;;;;;21.02;55.40;101050.38;5108043;28;20020;-45
2022/07/25 18:44:32;;;;;;;10.77;1.88;;;;;;;20.94;55.45;101060.06;5108834;28;20532;-45
2022/07/25 18:46:57;;;;;;;9.95;1.65;;;;;;;20.92;54.38;101053.97;5108787;28;20031;-45
2022/07/25 18:49:22;;;;;;;9.82;1.60;;;;;;;20.87;54.39;101058.38;5108234;28;20024;-48
2022/07/25 18:51:48;;;;;;;9.30;1.40;;;;;;;20.84;54.31;101053.19;5099693;28;20031;-46
2022/07/25 18:54:14;;;;;;;6.35;1.27;;;;;;;20.80;54.55;101056.69;5094979;28;20450;-44
2022/07/25 18:56:39;;;;;;;10.02;1.48;;;;;;;20.73;53.67;101048.03;5094347;28;20024;-45
2022/07/25 18:59:04;;;;;;;15.50;1.83;;;;;;;20.64;54.02;101054.19;5094928;28;20064;-45
2022/07/25 19:01:30;;;;;;;3.95;1.33;;;;;;;20.64;53.71;101058.56;5094919;28;20016;-46
2022/07/25 19:03:55;;;;;;;3.70;1.30;;;;;;;20.61;54.11;101050.75;5094082;28;20032;-45
2022/07/25 19:06:20;;;;;;;6.35;0.90;;;;;;;20.59;53.97;101055.97;5094535;28;20478;-46
2022/07/25 19:08:46;;;;;;;5.22;1.13;;;;;;;20.53;54.37;101054.28;5094529;28;20099;-44
2022/07/25 19:11:12;;;;;;;4.38;1.20;;;;;;;20.46;54.29;101063.06;5094231;28;20035;-45
2022/07/25 19:13:39;;;;;;;7.78;1.20;;;;;;;20.42;54.32;101063.13;5094407;28;20467;-45
2022/07/25 19:16:09;;;;;;;5.43;1.10;;;;;;;20.40;54.86;101071.00;5094606;28;20028;-45
2022/07/25 19:18:34;;;;;;;5.13;1.30;;;;;;;20.33;54.78;101062.28;5093988;28;20428;-46
2022/07/25 19:21:00;;;;;;;4.47;0.93;;;;;;;20.30;55.16;101069.31;5094008;28;20546;-48
2022/07/25 19:23:26;;;;;;;5.22;0.98;;;;;;;20.23;55.38;101078.94;5093936;28;20117;-47
2022/07/25 19:25:51;;;;;;;5.70;1.00;;;;;;;20.17;55.76;101071.16;5094421;28;20107;-46
2022/07/25 19:28:17;;;;;;;4.85;1.10;;;;;;;20.10;55.99;101077.28;5094304;28;20077;-44
2022/07/25 19:30:42;;;;;;;3.58;0.95;;;;;;;20.03;55.75;101074.72;5093939;28;20042;-46
2022/07/25 19:33:07;;;;;;;3.05;1.17;;;;;;;20.02;56.42;101082.56;5093986;28;20020;-47
2022/07/25 19:35:35;;;;;;;8.70;1.20;;;;;;;19.97;56.63;101084.34;5094551;28;20038;-46
2022/07/25 19:38:01;;;;;;;6.88;1.38;;;;;;;19.91;56.48;101087.88;5093672;28;20024;-45
2022/07/25 19:40:27;;;;;;;7.87;1.07;;;;;;;19.86;56.92;101084.41;5093909;28;20101;-44
2022/07/25 19:42:52;;;;;;;3.55;1.23;;;;;;;19.82;57.31;101087.91;5094191;28;20016;-44
2022/07/25 19:45:17;;;;;;;6.03;1.23;;;;;;;19.77;57.45;101089.63;5093507;28;20031;-45
2022/07/25 19:47:42;;;;;;;4.22;1.25;;;;;;;19.66;58.36;101089.69;5093882;28;20028;-47
2022/07/25 19:50:08;;;;;;;4.78;1.25;;;;;;;19.61;58.61;101096.69;5093713;28;20032;-46
2022/07/25 19:52:34;;;;;;;4.15;1.20;;;;;;;19.61;59.32;101100.16;5093338;28;20028;-46
2022/07/25 19:55:00;;;;;;;6.30;1.50;;;;;;;19.56;59.83;101109.75;5093907;28;20134;-47
2022/07/25 19:57:25;;;;;;;8.00;1.65;;;;;;;19.47;60.61;101107.19;5094024;28;20032;-44
2022/07/25 19:59:50;;;;;;;5.57;1.50;;;;;;;19.43;61.22;101111.53;5093290;28;20031;-45
2022/07/25 20:02:16;;;;;;;6.25;1.88;;;;;;;19.39;61.49;101122.88;5093288;28;20082;-46
2022/07/25 20:04:41;;;;;;;7.47;1.80;;;;;;;19.35;61.54;101124.66;5093306;28;20450;-44
2022/07/25 20:07:06;;;;;;;8.55;1.80;;;;;;;19.36;62.11;101126.38;5092859;28;20028;-45
2022/07/25 20:09:33;;;;;;;5.82;1.55;;;;;;;19.34;62.10;101125.53;5093977;28;20023;-45
2022/07/25 20:12:00;;;;;;;7.68;1.83;;;;;;;19.32;62.68;101127.25;5093271;28;20340;-44
2022/07/25 20:14:25;;;;;;;7.07;1.80;;;;;;;19.32;62.89;101132.50;5093069;28;20032;-47
2022/07/25 20:16:50;;;;;;;7.05;1.95;;;;;;;19.27;62.89;101123.78;5093273;28;20028;-45
2022/07/25 20:19:17;;;;;;;7.95;1.40;;;;;;;19.24;63.24;101129.03;5093389;28;20092;-45
2022/07/25 20:21:43;;;;;;;7.65;1.80;;;;;;;19.23;63.55;101122.91;5093473;28;20066;-47
2022/07/25 20:24:11;;;;;;;4.63;1.73;;;;;;;19.25;63.79;101122.94;5093266;28;20426;-47
2022/07/25 20:26:36;;;;;;;5.65;1.80;;;;;;;19.25;63.75;101130.78;5093456;28;20055;-45
2022/07/25 20:29:02;;;;;;;6.63;1.75;;;;;;;19.26;63.61;101132.50;5092909;28;20103;-44
2022/07/25 20:31:28;;;;;;;7.32;1.90;;;;;;;19.20;63.94;101128.16;5094043;28;20048;-45
2022/07/25 20:33:53;;;;;;;9.35;2.33;;;;;;;19.20;64.27;101122.09;5091793;28;20059;-45
2022/07/25 20:36:19;;;;;;;10.77;1.95;;;;;;;19.17;64.40;101127.28;5093656;28;20027;-44
2022/07/25 20:38:44;;;;;;;7.00;1.90;;;;;;;19.16;64.25;101133.38;5093749;28;20107;-46
2022/07/25 20:41:10;;;;;;;7.00;1.75;;;;;;;19.15;64.75;101135.13;5092887;28;20052;-46
2022/07/25 20:43:37;;;;;;;8.25;2.30;;;;;;;19.10;64.94;101133.41;5093635;28;20044;-45
2022/07/25 20:46:03;;;;;;;8.70;2.00;;;;;;;19.15;64.82;101129.06;5093608;28;20024;-45
2022/07/25 20:48:28;;;;;;;9.30;1.70;;;;;;;19.12;64.88;101139.50;5093309;28;20039;-44
2022/07/25 20:50:54;;;;;;;8.50;1.90;;;;;;;19.10;65.27;101130.81;5093131;28;20043;-44
2022/07/25 20:53:19;;;;;;;6.45;1.98;;;;;;;19.06;65.12;101141.25;5093896;28;20028;-44
2022/07/25 20:55:44;;;;;;;6.47;2.25;;;;;;;18.97;65.60;101136.03;5093172;28;20016;-45
2022/07/25 20:58:09;;;;;;;5.40;1.80;;;;;;;18.93;66.12;101131.69;5093268;28;20440;-44
2022/07/25 21:00:35;;;;;;;5.13;1.92;;;;;;;18.88;66.27;101143.84;5093520;28;20463;-45
2022/07/25 21:03:00;;;;;;;8.65;2.30;;;;;;;18.81;66.61;101139.47;5092791;28;20030;-45
2022/07/25 21:05:26;;;;;;;5.82;1.83;;;;;;;18.71;66.57;101134.25;5093206;28;20020;-47
2022/07/25 21:07:51;;;;;;;8.57;2.10;;;;;;;18.63;66.77;101125.56;5093375;28;20031;-45
2022/07/25 21:10:17;;;;;;;6.75;2.03;;;;;;;18.57;67.34;101131.63;5092911;28;20027;-45
2022/07/25 21:12:44;;;;;;;6.75;2.42;;;;;;;18.49;67.07;101138.59;5093159;28;20035;-47
2022/07/25 21:15:10;;;;;;;8.65;2.70;;;;;;;18.47;67.33;101129.00;5093056;28;20110;-44
2022/07/25 21:17:36;;;;;;;6.03;2.10;;;;;;;18.42;67.41;101137.72;5092809;28;20084;-48
2022/07/25 21:20:02;;;;;;;11.80;2.50;;;;;;;18.40;67.91;101136.81;5092814;28;20024;-45
2022/07/25 21:22:28;;;;;;;10.10;2.50;;;;;;;18.38;68.04;101145.53;5093439;28;20028;-45
2022/07/25 21:24:53;;;;;;;8.27;2.15;;;;;;;18.36;68.34;101148.13;5093030;28;20028;-46
2022/07/25 21:27:19;;;;;;;6.18;2.13;;;;;;;18.32;67.94;101146.38;5093091;28;20051;-45
2022/07/25 21:29:44;;;;;;;6.63;1.95;;;;;;;18.27;68.68;101148.13;5093062;28;20039;-44
2022/07/25 21:32:12;;;;;;;8.00;2.40;;;;;;;18.24;68.71;101153.31;5092438;28;20024;-45
2022/07/25 21:34:40;;;;;;;6.03;1.80;;;;;;;18.20;68.68;101162.00;5092704;28;20024;-46
2022/07/25 21:37:05;;;;;;;12.68;2.83;;;;;;;18.13;69.28;101149.78;5092479;28;20111;-44
2022/07/25 21:39:31;;;;;;;11.10;2.63;;;;;;;18.11;69.54;101155.00;5092498;28;20130;-44
2022/07/25 21:41:56;;;;;;;6.93;2.15;;;;;;;18.06;69.88;101152.41;5092874;28;20493;-44
2022/07/25 21:44:22;;;;;;;10.63;2.80;;;;;;;18.03;69.86;101154.97;5092513;28;20153;-45
2022/07/25 21:46:47;;;;;;;15.52;3.67;;;;;;;17.97;70.02;101159.31;5092507;28;20028;-47
2022/07/25 21:51:56;;;;;;;8.57;2.50;;;;;;;17.89;70.53;101156.63;5092132;28;20397;-47
2022/07/25 21:54:21;;;;;;;13.63;2.90;;;;;;;17.87;70.47;101158.34;5092743;28;20467;-44
2022/07/25 21:56:47;;;;;;;8.30;2.60;;;;;;;17.82;71.03;101160.97;5092699;28;20020;-46
2022/07/25 21:59:12;;;;;;;11.43;2.47;;;;;;;17.75;71.09;101159.16;5092230;28;20028;-48
2022/07/25 22:01:37;;;;;;;8.80;2.38;;;;;;;17.74;71.11;101160.91;5092385;28;20032;-44
2022/07/25 22:04:03;;;;;;;9.48;2.55;;;;;;;17.70;71.44;101163.50;5092565;28;20035;-47
2022/07/25 22:06:29;;;;;;;8.95;2.92;;;;;;;17.68;71.82;101166.09;5092255;28;20024;-47
2022/07/25 22:08:54;;;;;;;5.50;2.45;;;;;;;17.64;71.93;101166.94;5092435;28;20060;-46
2022/07/25 22:11:19;;;;;;;7.45;2.30;;;;;;;17.58;71.91;101161.69;5092875;28;20036;-46
2022/07/25 22:13:44;;;;;;;9.70;3.05;;;;;;;17.51;72.23;101167.75;5092065;28;20028;-46
2022/07/25 22:16:10;;;;;;;13.45;2.90;;;;;;;17.49;72.95;101169.47;5092153;28;20020;-44
2022/07/25 22:18:36;;;;;;;7.97;2.85;;;;;;;17.43;73.13;101168.56;5092636;28;20025;-46
2022/07/25 22:21:01;;;;;;;10.60;2.60;;;;;;;17.46;73.09;101177.28;5091874;28;20463;-44
2022/07/25 22:23:26;;;;;;;11.77;3.50;;;;;;;17.41;73.07;101179.84;5092517;28;20050;-45
2022/07/25 22:25:52;;;;;;;8.73;2.78;;;;;;;17.38;72.78;101179.84;5092393;28;20012;-45
2022/07/25 22:28:19;;;;;;;9.30;2.60;;;;;;;17.33;73.11;101177.19;5095836;28;20024;-45
2022/07/25 22:30:46;;;;;;;11.23;2.97;;;;;;;17.27;73.31;101190.16;5095975;28;20030;-46
2022/07/25 22:33:11;;;;;;;11.75;3.28;;;;;;;17.29;73.50;101183.25;5096548;28;20032;-44
2022/07/25 22:35:37;;;;;;;10.57;3.00;;;;;;;17.25;73.63;101184.94;5095377;28;20020;-45
2022/07/25 22:38:02;;;;;;;7.60;2.95;;;;;;;17.23;73.87;101186.66;5096262;28;20024;-46
2022/07/25 22:40:28;;;;;;;10.32;3.30;;;;;;;17.24;73.98;101179.72;5095320;28;20051;-44
2022/07/25 22:42:53;;;;;;;12.70;3.30;;;;;;;17.16;74.38;101186.59;5096175;28;20470;-44
2022/07/25 22:45:22;;;;;;;12.15;3.45;;;;;;;17.16;74.55;101183.97;5096111;28;20478;-47
2022/07/25 22:47:47;;;;;;;10.65;3.15;;;;;;;17.10;74.68;101180.47;5095128;28;20469;-44
2022/07/25 22:50:13;;;;;;;8.82;3.08;;;;;;;17.04;74.84;101179.56;5095975;28;20580;-45
2022/07/25 22:52:38;;;;;;;11.65;3.47;;;;;;;17.05;75.24;101183.91;5095781;28;20028;-45
2022/07/25 22:55:04;;;;;;;7.10;2.83;;;;;;;17.00;75.49;101189.06;5095418;28;20026;-46
2022/07/25 22:57:29;;;;;;;14.05;3.30;;;;;;;17.00;75.13;101189.06;5095798;28;20012;-44
2022/07/25 22:59:54;;;;;;;10.43;3.17;;;;;;;16.92;75.63;101180.34;5095452;28;20028;-46
2022/07/25 23:02:19;;;;;;;15.98;3.30;;;;;;;16.95;75.79;101185.56;5095235;28;20044;-44
2022/07/25 23:04:45;;;;;;;13.60;3.88;;;;;;;16.94;75.93;101189.03;5095575;28;20028;-44
2022/07/25 23:07:10;;;;;;;10.35;2.90;;;;;;;16.92;75.96;101190.75;5095993;28;20024;-46
2022/07/25 23:09:35;;;;;;;10.00;3.30;;;;;;;16.93;76.21;101187.28;5095234;28;20024;-45
2022/07/25 23:12:00;;;;;;;10.57;3.10;;;;;;;16.91;75.94;101189.00;5095111;28;20107;-45
2022/07/25 23:14:26;;;;;;;11.10;3.30;;;;;;;16.95;76.20;101185.56;5095621;28;20020;-46
2022/07/25 23:19:35;;;;;;;8.30;2.90;;;;;;;16.97;76.42;101194.25;5095438;28;20094;-45
2022/07/25 23:22:00;;;;;;;15.82;3.35;;;;;;;16.96;76.43;101195.13;5095302;28;20459;-46
2022/07/25 23:24:26;;;;;;;11.95;3.63;;;;;;;16.97;76.30;101198.59;5094871;28;20020;-45
2022/07/25 23:26:51;;;;;;;10.50;2.88;;;;;;;16.95;76.36;101195.97;5094833;28;20036;-45
2022/07/25 23:29:16;;;;;;;12.57;3.72;;;;;;;16.94;76.22;101204.66;5095258;28;20046;-44
2022/07/25 23:31:41;;;;;;;13.82;3.33;;;;;;;16.91;76.40;101199.41;5094551;28;20024;-46
2022/07/25 23:34:08;;;;;;;12.27;3.42;;;;;;;16.91;76.52;101208.13;5095190;28;20055;-44
2022/07/25 23:36:33;;;;;;;11.90;3.28;;;;;;;16.97;76.60;101209.88;5095222;28;20024;-44
2022/07/25 23:38:58;;;;;;;15.52;4.18;;;;;;;16.92;76.50;101201.16;5093846;28;20023;-45
2022/07/25 23:41:23;;;;;;;10.23;3.15;;;;;;;16.92;76.55;101203.75;5095005;28;20070;-46
2022/07/25 23:43:49;;;;;;;9.45;3.47;;;;;;;16.86;76.80;101206.28;5094116;28;20027;-46
2022/07/25 23:46:14;;;;;;;14.05;3.33;;;;;;;16.85;77.02;101207.13;5094868;28;20028;-45
2022/07/25 23:48:39;;;;;;;10.60;3.40;;;;;;;16.82;77.44;101204.50;5095056;28;20020;-45
2022/07/25 23:51:05;;;;;;;12.77;3.70;;;;;;;16.82;77.43;101214.91;5094306;28;20031;-45
2022/07/25 23:53:30;;;;;;;14.60;4.03;;;;;;;16.77;77.72;101212.25;5094626;28;20027;-45
2022/07/25 23:55:55;;;;;;;12.48;4.00;;;;;;;16.75;77.62;101219.19;5094404;28;20027;-45
2022/07/25 23:58:21;;;;;;;11.70;3.70;;;;;;;16.76;77.40;101214.00;5094147;28;20032;-45
